Time;durP1;ratioP1;P1;durP2;ratioP2;P2;SDS_P1;SDS_P2;PMS_P1;PMS_P2;Temp;Humidity;BMP_temperature;BMP_pressure;BME280_temperature;BME280_humidity;BME280_pressure;Samples;Min_cycle;Max_cycle;Signal;HPM_P1;HPM_P2
2024/03/06 00:02:10;;;;;;;19.70;13.50;;;;;;;5.40;88.36;100775.31;108591;1254;61097;-66
2024/03/06 00:04:38;;;;;;;18.10;13.00;;;;;;;5.39;88.46;100776.30;108120;1254;74738;-67
2024/03/06 00:07:06;;;;;;;22.30;13.40;;;;;;;5.38;88.69;100777.86;108126;1254;71606;-66
2024/03/06 00:09:36;;;;;;;17.90;12.30;;;;;;;5.38;88.96;100779.98;108149;1254;71605;-67
2024/03/06 00:12:04;;;;;;;20.60;12.70;;;;;;;5.38;89.12;100780.81;108001;1257;61180;-66
2024/03/06 00:14:32;;;;;;;16.40;11.80;;;;;;;5.35;89.20;100782.73;108144;1256;61126;-67
2024/03/06 00:17:00;;;;;;;19.30;12.50;;;;;;;5.34;89.31;100785.09;108061;1254;73431;-67
2024/03/06 00:19:27;;;;;;;17.80;13.00;;;;;;;5.34;89.45;100785.81;108204;1254;72770;-66
2024/03/06 00:21:55;;;;;;;18.70;13.30;;;;;;;5.33;89.41;100786.91;108091;1254;71083;-65
2024/03/06 00:24:25;;;;;;;22.30;13.50;;;;;;;5.33;89.31;100784.52;108041;1256;61240;-66
2024/03/06 00:26:53;;;;;;;21.00;13.40;;;;;;;5.28;89.43;100786.05;108145;1254;61144;-66
2024/03/06 00:29:21;;;;;;;22.00;13.40;;;;;;;5.26;89.51;100784.41;108061;1254;74693;-66
2024/03/06 00:31:48;;;;;;;20.00;12.50;;;;;;;5.23;89.76;100780.92;108070;1254;72892;-66
2024/03/06 00:34:16;;;;;;;21.60;14.10;;;;;;;5.22;89.76;100780.27;108164;1254;72781;-66
2024/03/06 00:36:44;;;;;;;19.90;12.80;;;;;;;5.18;89.94;100779.98;107885;1255;61206;-66
2024/03/06 00:39:15;;;;;;;19.60;12.50;;;;;;;5.22;90.08;100781.30;108142;1256;61212;-66
2024/03/06 00:41:43;;;;;;;20.20;13.50;;;;;;;5.24;89.75;100781.00;108105;1254;73380;-65
2024/03/06 00:44:10;;;;;;;20.70;12.90;;;;;;;5.23;89.69;100782.89;108145;1254;71560;-66
2024/03/06 00:46:38;;;;;;;18.40;12.10;;;;;;;5.22;89.81;100784.64;108099;1254;71403;-68
2024/03/06 00:49:06;;;;;;;19.00;12.80;;;;;;;5.22;89.74;100788.88;107996;1254;61196;-67
2024/03/06 00:51:36;;;;;;;19.00;12.50;;;;;;;5.21;89.82;100790.89;108141;1254;61747;-65
2024/03/06 00:54:15;;;;;;;21.40;13.00;;;;;;;5.19;90.02;100791.59;108122;1260;72983;-65
2024/03/06 00:56:44;;;;;;;20.00;12.00;;;;;;;5.17;90.18;100793.44;108028;1254;71662;-66
2024/03/06 00:59:12;;;;;;;22.00;12.90;;;;;;;5.17;90.32;100794.70;108174;1258;71507;-66
2024/03/06 01:01:41;;;;;;;22.30;13.60;;;;;;;5.16;90.60;100795.56;108122;1254;61155;-67
2024/03/06 01:04:09;;;;;;;21.10;13.20;;;;;;;5.14;90.49;100793.67;108177;1254;61231;-67
2024/03/06 01:06:37;;;;;;;20.20;13.10;;;;;;;5.13;90.61;100796.48;108114;1254;74756;-67
2024/03/06 01:09:04;;;;;;;17.60;12.20;;;;;;;5.11;90.82;100797.27;108125;1254;71268;-66
2024/03/06 01:11:32;;;;;;;18.60;12.50;;;;;;;5.06;91.18;100798.73;108112;1256;71784;-66
2024/03/06 01:14:00;;;;;;;20.90;12.90;;;;;;;5.05;91.61;100801.36;108146;1254;61092;-66
2024/03/06 01:16:28;;;;;;;18.00;12.50;;;;;;;5.02;91.77;100803.16;108107;1254;61232;-66
2024/03/06 01:18:56;;;;;;;19.20;12.80;;;;;;;5.03;91.75;100805.30;108133;1254;74392;-65
2024/03/06 01:21:24;;;;;;;21.80;13.70;;;;;;;5.04;91.55;100807.72;108104;1254;71173;-65
2024/03/06 01:23:52;;;;;;;23.80;13.80;;;;;;;5.02;91.57;100811.42;108112;1254;71720;-65
2024/03/06 01:26:19;;;;;;;19.10;12.70;;;;;;;5.02;91.66;100813.38;108045;1254;61449;-65
2024/03/06 01:28:47;;;;;;;21.00;13.40;;;;;;;4.99;91.72;100814.70;108118;1257;61061;-65
2024/03/06 01:31:15;;;;;;;22.40;13.80;;;;;;;5.00;91.77;100818.64;108022;1256;74798;-65
2024/03/06 01:33:43;;;;;;;18.70;13.20;;;;;;;4.98;91.71;100821.55;108061;1257;72172;-65
2024/03/06 01:36:10;;;;;;;24.00;15.10;;;;;;;4.95;91.86;100820.67;108138;1254;72201;-65
2024/03/06 01:38:38;;;;;;;22.70;13.70;;;;;;;4.97;91.57;100821.64;108137;1254;60964;-65
2024/03/06 01:41:08;;;;;;;22.40;14.50;;;;;;;4.93;91.81;100820.81;108018;1257;61117;-66
2024/03/06 01:43:39;;;;;;;22.30;14.10;;;;;;;4.94;92.03;100824.72;108039;1257;74669;-66
2024/03/06 01:46:07;;;;;;;23.30;13.70;;;;;;;4.94;92.08;100824.73;108093;1257;72524;-66
2024/03/06 01:48:35;;;;;;;20.30;13.20;;;;;;;4.94;92.20;100828.54;108042;1254;71105;-67
2024/03/06 01:51:04;;;;;;;19.80;12.40;;;;;;;4.94;92.18;100825.61;108046;1254;61132;-66
2024/03/06 01:53:32;;;;;;;23.70;13.70;;;;;;;4.92;92.36;100828.26;108044;1256;61138;-67
2024/03/06 01:56:00;;;;;;;21.40;13.80;;;;;;;4.91;92.50;100824.82;108053;1256;73473;-67
2024/03/06 01:58:28;;;;;;;24.00;14.40;;;;;;;4.95;92.38;100825.44;108002;1254;71473;-66
2024/03/06 02:00:56;;;;;;;23.00;14.20;;;;;;;4.96;92.25;100825.64;108000;1254;71453;-66
2024/03/06 02:03:25;;;;;;;24.40;14.50;;;;;;;4.94;92.41;100825.58;107924;1255;61340;-65
2024/03/06 02:05:52;;;;;;;20.00;13.30;;;;;;;4.93;92.46;100826.79;108113;1254;61077;-65
2024/03/06 02:08:20;;;;;;;18.20;12.80;;;;;;;4.92;92.68;100829.08;108110;1253;73417;-66
2024/03/06 02:10:48;;;;;;;20.00;13.80;;;;;;;4.89;92.66;100828.84;108122;1254;71458;-66
2024/03/06 02:13:18;;;;;;;22.20;14.50;;;;;;;4.86;93.03;100828.30;108027;1254;71195;-66
2024/03/06 02:15:46;;;;;;;22.20;14.90;;;;;;;4.84;93.53;100833.91;108101;1254;61233;-67
2024/03/06 02:18:15;;;;;;;19.90;13.80;;;;;;;4.83;94.10;100837.84;108088;1254;61257;-67
2024/03/06 02:20:43;;;;;;;22.00;14.30;;;;;;;4.81;94.53;100835.83;108047;1254;73766;-66
2024/03/06 02:23:11;;;;;;;21.70;14.70;;;;;;;4.79;95.22;100834.77;108099;1254;72079;-67
2024/03/06 02:25:39;;;;;;;23.20;14.60;;;;;;;4.75;95.68;100837.89;108118;1254;71169;-68
2024/03/06 02:28:07;;;;;;;19.70;13.40;;;;;;;4.75;96.07;100840.65;107829;1254;61103;-67
2024/03/06 02:30:36;;;;;;;23.40;14.20;;;;;;;4.73;96.66;100843.80;108188;1254;59200;-66
2024/03/06 02:33:06;;;;;;;22.60;14.70;;;;;;;4.70;96.99;100845.80;108117;1259;73242;-67
2024/03/06 02:35:39;;;;;;;22.30;15.30;;;;;;;4.67;97.33;100852.08;108024;1254;72809;-67
2024/03/06 02:38:07;;;;;;;22.50;15.10;;;;;;;4.67;97.76;100855.26;108085;1254;71348;-66
2024/03/06 02:40:35;;;;;;;23.60;16.10;;;;;;;4.66;98.06;100857.50;108027;1254;61249;-66
2024/03/06 02:43:04;;;;;;;22.70;16.30;;;;;;;4.67;98.51;100865.77;108072;1254;60246;-65
2024/03/06 02:45:32;;;;;;;25.40;16.40;;;;;;;4.68;98.73;100865.48;108169;1254;73379;-66
2024/03/06 02:48:00;;;;;;;30.70;17.90;;;;;;;4.71;99.09;100867.39;108088;1254;71605;-66
2024/03/06 02:50:28;;;;;;;21.70;15.30;;;;;;;4.72;99.51;100867.62;108118;1254;70247;-66
2024/03/06 02:52:56;;;;;;;24.40;16.00;;;;;;;4.72;99.92;100866.80;108105;1254;61250;-66
2024/03/06 02:55:24;;;;;;;25.90;17.50;;;;;;;4.70;100.00;100871.81;108056;1254;61312;-66
2024/03/06 02:57:52;;;;;;;26.00;18.20;;;;;;;4.65;100.00;100871.51;108133;1254;73440;-66
2024/03/06 03:00:20;;;;;;;27.20;18.10;;;;;;;4.63;100.00;100873.14;108102;1254;71377;-66
2024/03/06 03:02:48;;;;;;;25.80;17.50;;;;;;;4.61;100.00;100875.16;108092;1254;72671;-66
2024/03/06 03:05:15;;;;;;;27.90;18.00;;;;;;;4.57;100.00;100878.26;108104;1256;61365;-66
2024/03/06 03:07:43;;;;;;;28.50;18.20;;;;;;;4.52;100.00;100878.40;108137;1254;61086;-67
2024/03/06 03:10:12;;;;;;;26.80;19.20;;;;;;;4.45;100.00;100872.69;108125;1254;73367;-66
2024/03/06 03:12:40;;;;;;;29.40;19.20;;;;;;;4.42;100.00;100879.08;108131;1254;72731;-66
2024/03/06 03:15:09;;;;;;;26.40;18.50;;;;;;;4.42;100.00;100883.36;108108;1254;71358;-66
2024/03/06 03:17:38;;;;;;;26.70;18.50;;;;;;;4.39;100.00;100879.83;108094;1254;61193;-66
2024/03/06 03:20:12;;;;;;;28.10;18.80;;;;;;;4.37;100.00;100885.13;107889;1253;61221;-65
2024/03/06 03:22:41;;;;;;;30.00;19.00;;;;;;;4.33;100.00;100888.17;108100;1254;73960;-66
2024/03/06 03:25:10;;;;;;;28.80;18.50;;;;;;;4.29;100.00;100895.92;108090;1254;72758;-66
2024/03/06 03:27:39;;;;;;;30.60;20.10;;;;;;;4.27;100.00;100894.02;108085;1254;73103;-68
2024/03/06 03:30:11;;;;;;;31.90;20.70;;;;;;;4.25;100.00;100898.02;108052;1254;61192;-65
2024/03/06 03:32:38;;;;;;;32.40;21.00;;;;;;;4.22;100.00;100901.63;108152;1254;61082;-66
2024/03/06 03:35:07;;;;;;;32.30;21.20;;;;;;;4.18;100.00;100906.48;108026;1259;74721;-65
2024/03/06 03:37:35;;;;;;;29.80;19.40;;;;;;;4.18;100.00;100907.83;108119;1254;72757;-65
2024/03/06 03:40:04;;;;;;;31.70;20.00;;;;;;;4.15;100.00;100909.70;107984;1254;71320;-65
2024/03/06 03:42:31;;;;;;;33.20;20.30;;;;;;;4.14;100.00;100905.98;108106;1254;60870;-66
2024/03/06 03:44:59;;;;;;;31.10;21.30;;;;;;;4.14;100.00;100910.95;108046;1254;61118;-66
2024/03/06 03:47:27;;;;;;;34.00;21.00;;;;;;;4.12;100.00;100908.03;108116;1254;74635;-67
2024/03/06 03:49:54;;;;;;;30.10;21.40;;;;;;;4.08;100.00;100910.77;108081;1254;72842;-66
2024/03/06 03:52:37;;;;;;;29.20;19.70;;;;;;;4.01;100.00;100913.61;108136;1256;72526;-65
2024/03/06 03:55:05;;;;;;;31.20;20.30;;;;;;;3.95;100.00;100917.80;108130;1254;61117;-66
2024/03/06 03:57:33;;;;;;;29.80;19.90;;;;;;;3.93;100.00;100919.99;108147;1254;60288;-67
2024/03/06 04:00:01;;;;;;;32.30;20.60;;;;;;;3.93;100.00;100922.77;108162;1254;73770;-65
2024/03/06 04:02:38;;;;;;;33.50;20.90;;;;;;;3.89;100.00;100922.03;108161;1254;71974;-66
2024/03/06 04:05:07;;;;;;;32.60;22.10;;;;;;;3.85;100.00;100918.46;108090;1254;71212;-66
2024/03/06 04:07:35;;;;;;;34.30;21.80;;;;;;;3.84;100.00;100920.98;108162;1254;61111;-66
2024/03/06 04:10:04;;;;;;;32.80;21.30;;;;;;;3.83;100.00;100923.14;108141;1254;61272;-65
2024/03/06 04:12:31;;;;;;;32.80;21.80;;;;;;;3.83;100.00;100932.58;108140;1254;73437;-66
2024/03/06 04:14:59;;;;;;;33.30;22.40;;;;;;;3.83;100.00;100930.62;108122;1253;71439;-65
2024/03/06 04:17:27;;;;;;;33.30;20.30;;;;;;;3.83;100.00;100938.83;108175;1258;71428;-66
2024/03/06 04:19:55;;;;;;;31.50;21.30;;;;;;;3.82;100.00;100941.14;108130;1254;61246;-66
2024/03/06 04:22:23;;;;;;;34.10;22.90;;;;;;;3.80;100.00;100946.92;108147;1254;60428;-66
2024/03/06 04:24:51;;;;;;;32.20;21.50;;;;;;;3.80;100.00;100950.52;108140;1259;73620;-66
2024/03/06 04:27:18;;;;;;;35.10;22.30;;;;;;;3.80;100.00;100951.47;108083;1254;71617;-65
2024/03/06 04:29:46;;;;;;;33.20;21.70;;;;;;;3.73;100.00;100960.23;108104;1254;71887;-65
2024/03/06 04:32:14;;;;;;;37.50;23.50;;;;;;;3.68;100.00;100959.63;108163;1254;61218;-66
2024/03/06 04:34:42;;;;;;;35.20;22.80;;;;;;;3.65;100.00;100960.48;108142;1254;61084;-67
2024/03/06 04:37:09;;;;;;;37.90;24.60;;;;;;;3.65;100.00;100961.17;108152;1256;74698;-66
2024/03/06 04:39:37;;;;;;;37.40;24.00;;;;;;;3.65;100.00;100965.72;108074;1254;71487;-63
2024/03/06 04:42:06;;;;;;;37.20;23.70;;;;;;;3.64;100.00;100972.17;108135;1254;72619;-66
2024/03/06 04:44:34;;;;;;;36.10;24.40;;;;;;;3.64;100.00;100975.59;108128;1254;61207;-67
2024/03/06 04:47:02;;;;;;;36.60;23.90;;;;;;;3.65;100.00;100978.27;108102;1254;61083;-67
2024/03/06 04:49:36;;;;;;;34.50;22.50;;;;;;;3.61;100.00;100981.02;108356;1254;74591;-65
2024/03/06 04:52:04;;;;;;;35.40;23.30;;;;;;;3.57;100.00;100987.00;108117;1254;72050;-65
2024/03/06 04:54:32;;;;;;;35.30;23.50;;;;;;;3.60;100.00;100985.54;108065;1254;70432;-67
2024/03/06 04:57:00;;;;;;;35.50;23.60;;;;;;;3.57;100.00;100988.13;108078;1254;62528;-67
2024/03/06 04:59:27;;;;;;;41.80;25.90;;;;;;;3.56;100.00;100989.60;108125;1254;61176;-67
2024/03/06 05:01:55;;;;;;;40.30;24.80;;;;;;;3.54;100.00;100992.69;108071;1254;74647;-66
2024/03/06 05:04:23;;;;;;;35.20;22.60;;;;;;;3.52;100.00;100996.13;108172;1253;71462;-67
2024/03/06 05:07:09;;;;;;;38.70;24.00;;;;;;;3.48;100.00;100992.70;108060;1257;72725;-68
2024/03/06 05:09:54;;;;;;;38.50;23.70;;;;;;;3.47;100.00;100996.92;108037;1254;61235;-67
2024/03/06 05:12:39;;;;;;;37.80;24.10;;;;;;;3.46;100.00;100996.53;108092;1257;60034;-67
2024/03/06 05:15:24;;;;;;;36.90;23.40;;;;;;;3.44;100.00;101000.00;108005;1256;74782;-65
2024/03/06 05:18:09;;;;;;;38.20;24.60;;;;;;;3.43;100.00;101004.15;108021;1254;71775;-66
2024/03/06 05:20:54;;;;;;;39.00;23.60;;;;;;;3.43;100.00;101004.31;107917;1258;70665;-67
2024/03/06 05:23:39;;;;;;;35.90;23.00;;;;;;;3.37;100.00;101006.16;107917;1255;61244;-67
2024/03/06 05:26:24;;;;;;;35.20;22.80;;;;;;;3.36;100.00;101008.19;108105;1255;63042;-66
2024/03/06 05:29:10;;;;;;;36.80;23.80;;;;;;;3.40;100.00;101007.19;108012;1253;74731;-65
2024/03/06 05:31:55;;;;;;;36.70;22.80;;;;;;;3.38;100.00;101010.18;108077;1258;72683;-66
2024/03/06 05:34:41;;;;;;;35.90;22.90;;;;;;;3.38;100.00;101012.52;108053;1254;72483;-66
2024/03/06 05:37:28;;;;;;;35.10;22.80;;;;;;;3.37;100.00;101014.23;108100;1254;61122;-66
2024/03/06 05:40:14;;;;;;;34.80;22.20;;;;;;;3.39;100.00;101015.67;108165;1254;61116;-66
2024/03/06 05:42:59;;;;;;;38.50;23.20;;;;;;;3.41;100.00;101017.76;108080;1254;73371;-65
2024/03/06 05:45:44;;;;;;;35.90;22.90;;;;;;;3.39;100.00;101019.08;108074;1254;73175;-66
2024/03/06 05:48:30;;;;;;;37.50;23.70;;;;;;;3.39;100.00;101019.33;108075;1256;72719;-66
2024/03/06 05:51:15;;;;;;;34.90;22.70;;;;;;;3.35;100.00;101017.80;108091;1254;61115;-66
2024/03/06 05:54:00;;;;;;;33.30;21.60;;;;;;;3.35;100.00;101017.88;108076;1254;61118;-66
2024/03/06 05:56:45;;;;;;;36.60;23.70;;;;;;;3.34;100.00;101020.61;108135;1254;74650;-67
2024/03/06 05:59:30;;;;;;;37.10;23.80;;;;;;;3.35;100.00;101020.34;108143;1254;71444;-66
2024/03/06 06:01:58;;;;;;;39.50;23.90;;;;;;;3.38;100.00;101019.61;108074;1257;72961;-66
2024/03/06 06:04:26;;;;;;;39.60;24.30;;;;;;;3.41;100.00;101020.60;108138;1255;60382;-68
2024/03/06 06:06:53;;;;;;;37.70;25.30;;;;;;;3.42;100.00;101019.35;108043;1253;62363;-68
2024/03/06 06:09:21;;;;;;;37.90;24.30;;;;;;;3.41;100.00;101025.67;108025;1256;73573;-66
2024/03/06 06:11:50;;;;;;;39.10;23.80;;;;;;;3.40;100.00;101027.09;107954;1256;71783;-66
2024/03/06 06:14:18;;;;;;;41.80;26.00;;;;;;;3.40;100.00;101031.69;108018;1256;71398;-67
2024/03/06 06:16:46;;;;;;;39.10;25.50;;;;;;;3.40;100.00;101033.99;108180;1254;60673;-67
2024/03/06 06:19:13;;;;;;;40.40;25.60;;;;;;;3.38;100.00;101040.16;108099;1257;61128;-67
2024/03/06 06:21:41;;;;;;;40.00;26.30;;;;;;;3.35;100.00;101037.77;108036;1257;73142;-67
2024/03/06 06:24:09;;;;;;;40.20;26.70;;;;;;;3.32;100.00;101043.23;108083;1254;71659;-66
2024/03/06 06:26:37;;;;;;;41.60;26.20;;;;;;;3.31;100.00;101044.48;108114;1256;71292;-66
2024/03/06 06:29:05;;;;;;;41.30;25.90;;;;;;;3.29;100.00;101046.45;108069;1254;61081;-67
2024/03/06 06:31:33;;;;;;;41.80;27.30;;;;;;;3.30;100.00;101049.27;108123;1254;60042;-68
2024/03/06 06:34:01;;;;;;;44.90;27.60;;;;;;;3.33;100.00;101052.29;108099;1254;74650;-67
2024/03/06 06:36:29;;;;;;;39.00;25.70;;;;;;;3.37;100.00;101054.38;108066;1254;71258;-66
2024/03/06 06:38:57;;;;;;;40.00;25.40;;;;;;;3.40;100.00;101055.73;108108;1255;71109;-67
2024/03/06 06:41:27;;;;;;;44.10;27.00;;;;;;;3.43;100.00;101057.95;108014;1256;61093;-66
2024/03/06 06:43:55;;;;;;;44.30;26.80;;;;;;;3.44;100.00;101056.80;108164;1254;61057;-67
2024/03/06 06:46:23;;;;;;;42.60;25.50;;;;;;;3.43;100.00;101059.73;108083;1254;73253;-68
2024/03/06 06:48:51;;;;;;;41.10;24.80;;;;;;;3.40;99.84;101062.07;108116;1254;75139;-66
2024/03/06 06:51:19;;;;;;;38.80;24.70;;;;;;;3.40;99.97;101064.27;108113;1254;72456;-67
2024/03/06 06:53:46;;;;;;;40.20;25.60;;;;;;;3.39;99.75;101066.94;108057;1254;61939;-65
2024/03/06 06:56:14;;;;;;;38.10;25.00;;;;;;;3.41;98.81;101064.76;108030;1255;61087;-68
2024/03/06 06:58:43;;;;;;;41.80;26.10;;;;;;;3.41;97.94;101066.86;108000;1254;76897;-66
2024/03/06 07:01:11;;;;;;;40.10;25.00;;;;;;;3.40;97.84;101070.89;108077;1254;74261;-66
2024/03/06 07:03:39;;;;;;;41.60;24.40;;;;;;;3.43;97.57;101073.90;107926;1256;74863;-68
2024/03/06 07:06:07;;;;;;;36.80;23.60;;;;;;;3.46;97.65;101076.11;108011;1256;65218;-67
2024/03/06 07:08:34;;;;;;;43.20;24.10;;;;;;;3.50;97.22;101076.41;108034;1254;61368;-68
2024/03/06 07:11:03;;;;;;;39.40;24.30;;;;;;;3.53;96.17;101076.79;108180;1254;76797;-68
2024/03/06 07:13:30;;;;;;;37.70;24.30;;;;;;;3.55;95.47;101080.60;108252;1254;75215;-67
2024/03/06 07:15:58;;;;;;;35.50;22.30;;;;;;;3.54;94.55;101080.89;108114;1254;70574;-68
2024/03/06 07:18:26;;;;;;;35.80;23.80;;;;;;;3.51;93.25;101080.23;108019;1255;60495;-66
2024/03/06 07:20:54;;;;;;;35.50;23.10;;;;;;;3.48;92.97;101082.90;108019;1255;62371;-68
2024/03/06 07:23:22;;;;;;;36.70;22.80;;;;;;;3.47;92.70;101084.03;108060;1257;76952;-67
2024/03/06 07:25:50;;;;;;;36.10;23.40;;;;;;;3.50;92.84;101086.16;108078;1257;73154;-66
2024/03/06 07:28:18;;;;;;;33.30;21.90;;;;;;;3.51;92.11;101087.94;108058;1254;74848;-65
2024/03/06 07:30:47;;;;;;;34.70;21.60;;;;;;;3.51;91.13;101087.73;108081;1254;60467;-64
2024/03/06 07:33:14;;;;;;;37.20;21.90;;;;;;;3.52;90.29;101089.46;108108;1254;62352;-66
2024/03/06 07:35:42;;;;;;;36.50;21.50;;;;;;;3.55;90.24;101091.91;108154;1254;74154;-67
2024/03/06 07:38:10;;;;;;;30.60;20.30;;;;;;;3.64;90.36;101093.56;108162;1254;75030;-66
2024/03/06 07:40:38;;;;;;;33.90;22.10;;;;;;;3.72;89.96;101092.30;107950;1254;74955;-66
2024/03/06 07:43:06;;;;;;;30.70;21.00;;;;;;;3.78;88.81;101092.63;108176;1254;61551;-64
2024/03/06 07:45:34;;;;;;;32.60;19.90;;;;;;;3.80;87.26;101088.98;108172;1254;62426;-66
2024/03/06 07:48:02;;;;;;;33.20;20.20;;;;;;;3.79;86.35;101090.23;108105;1254;77001;-66
2024/03/06 07:50:30;;;;;;;33.30;21.40;;;;;;;3.77;85.76;101092.67;108180;1254;74924;-68
2024/03/06 07:52:58;;;;;;;28.90;19.50;;;;;;;3.77;85.38;101094.87;108143;1258;71916;-68
2024/03/06 07:55:26;;;;;;;31.10;19.30;;;;;;;3.80;85.61;101096.55;107976;1255;61196;-67
2024/03/06 07:57:54;;;;;;;28.40;19.00;;;;;;;3.82;84.49;101097.86;108031;1254;61231;-66
2024/03/06 08:00:22;;;;;;;28.50;19.10;;;;;;;3.80;84.05;101098.34;107950;1254;76703;-66
2024/03/06 08:02:50;;;;;;;28.70;19.10;;;;;;;3.79;83.70;101103.75;108160;1254;71956;-66
2024/03/06 08:05:18;;;;;;;32.10;19.30;;;;;;;3.80;83.78;101107.81;108078;1254;74858;-66
2024/03/06 08:07:46;;;;;;;32.60;18.80;;;;;;;3.87;84.06;101107.91;108058;1254;63210;-66
2024/03/06 08:10:14;;;;;;;26.90;17.90;;;;;;;4.01;84.06;101110.55;108110;1255;61265;-66
2024/03/06 08:12:42;;;;;;;29.80;19.20;;;;;;;4.09;82.95;101106.81;108058;1254;76980;-66
2024/03/06 08:15:12;;;;;;;30.90;19.40;;;;;;;4.14;82.37;101110.81;108124;1257;71870;-66
2024/03/06 08:17:43;;;;;;;28.50;18.90;;;;;;;4.15;81.24;101111.48;108051;1259;74828;-66
2024/03/06 08:20:12;;;;;;;;;;;;;;;4.21;81.06;101113.19;108215;1257;62035;-67
2024/03/06 08:22:40;;;;;;;28.10;18.30;;;;;;;4.25;80.29;101110.55;108122;1254;60168;-67
2024/03/06 08:25:09;;;;;;;28.50;18.20;;;;;;;4.27;79.70;101116.33;108065;1254;75551;-67
2024/03/06 08:27:38;;;;;;;29.80;19.40;;;;;;;4.27;79.24;101114.21;108104;1254;73736;-68
2024/03/06 08:30:08;;;;;;;27.20;17.90;;;;;;;4.28;78.89;101116.91;108077;1259;74970;-66
2024/03/06 08:32:35;;;;;;;27.50;18.50;;;;;;;4.32;78.91;101118.79;107930;1260;61203;-66
2024/03/06 08:35:07;;;;;;;30.00;18.20;;;;;;;4.37;78.82;101116.79;108060;1259;60186;-65
2024/03/06 08:37:35;;;;;;;28.80;18.60;;;;;;;4.38;78.36;101123.75;108072;1255;75617;-66
2024/03/06 08:40:04;;;;;;;27.00;17.90;;;;;;;4.39;78.56;101123.23;108208;1254;71012;-68
2024/03/06 08:42:32;;;;;;;29.50;18.80;;;;;;;4.46;78.11;101126.33;108099;1254;73413;-68
2024/03/06 08:45:00;;;;;;;29.90;18.80;;;;;;;4.48;77.51;101126.41;108128;1254;60431;-68
2024/03/06 08:47:28;;;;;;;26.70;18.90;;;;;;;4.47;76.67;101130.07;107997;1254;61335;-64
2024/03/06 08:49:56;;;;;;;25.80;17.70;;;;;;;4.48;76.46;101133.70;108132;1254;76869;-66
2024/03/06 08:52:25;;;;;;;28.30;18.30;;;;;;;4.51;76.35;101132.31;108249;1254;72291;-65
2024/03/06 08:54:56;;;;;;;28.60;17.80;;;;;;;4.58;76.38;101135.69;108094;1254;74883;-66
2024/03/06 08:57:28;;;;;;;28.70;18.60;;;;;;;4.63;76.33;101135.33;108099;1254;61159;-66
2024/03/06 09:00:03;;;;;;;28.70;18.60;;;;;;;4.66;76.24;101135.33;85887;1257;10001756;-66
2024/03/06 09:02:45;;;;;;;30.10;19.50;;;;;;;4.70;76.08;101139.20;108148;1254;59102;-64
2024/03/06 09:05:26;;;;;;;27.60;17.90;;;;;;;4.76;75.79;101139.56;108148;1254;77080;-67
2024/03/06 09:08:05;;;;;;;29.00;18.60;;;;;;;4.80;75.25;101141.59;108016;1254;74952;-66
2024/03/06 09:10:40;;;;;;;27.60;18.00;;;;;;;4.76;74.91;101138.58;107892;1257;73762;-64
2024/03/06 09:13:19;;;;;;;28.30;18.70;;;;;;;4.75;74.26;101141.77;108057;1254;61215;-66
2024/03/06 09:16:02;;;;;;;29.30;19.30;;;;;;;4.74;74.21;101141.52;108065;1254;62482;-65
2024/03/06 09:18:50;;;;;;;32.40;19.30;;;;;;;4.73;73.48;101138.99;107928;1256;76720;-65
2024/03/06 09:21:18;;;;;;;26.60;18.80;;;;;;;4.65;73.33;101143.02;107931;1254;73383;-66
2024/03/06 09:23:45;;;;;;;25.80;17.90;;;;;;;4.59;73.78;101143.95;107958;1258;72125;-66
2024/03/06 09:26:13;;;;;;;31.20;20.40;;;;;;;4.58;74.30;101152.14;107895;1256;61388;-66
2024/03/06 09:28:41;;;;;;;29.30;18.80;;;;;;;4.60;74.57;101155.81;108227;1254;61125;-67
2024/03/06 09:31:09;;;;;;;28.80;18.60;;;;;;;4.57;74.38;101152.02;107889;1254;75100;-68
2024/03/06 09:33:41;;;;;;;29.10;18.90;;;;;;;4.53;74.44;101156.07;108012;1255;72903;-64
2024/03/06 09:36:15;;;;;;;29.30;19.40;;;;;;;4.48;74.27;101160.46;107870;1255;73918;-65
2024/03/06 09:38:43;;;;;;;30.00;19.10;;;;;;;4.47;74.22;101154.94;107860;1254;63150;-66
2024/03/06 09:41:11;;;;;;;27.10;17.90;;;;;;;4.49;74.13;101160.84;107902;1254;61245;-68
2024/03/06 09:43:41;;;;;;;28.90;19.30;;;;;;;4.55;74.18;101162.67;107969;1254;76985;-67
2024/03/06 09:46:09;;;;;;;30.30;19.60;;;;;;;4.54;73.86;101162.52;108988;1254;73425;-66
2024/03/06 09:48:37;;;;;;;28.50;19.00;;;;;;;4.50;74.01;101167.80;107880;1254;72668;-66
2024/03/06 09:51:06;;;;;;;26.40;18.40;;;;;;;4.45;73.74;101167.71;108149;1254;61355;-65
2024/03/06 09:53:34;;;;;;;27.80;17.80;;;;;;;4.38;73.74;101166.64;108030;1254;61583;-66
2024/03/06 09:56:03;;;;;;;29.20;18.70;;;;;;;4.35;73.95;101167.00;107939;1254;75429;-66
2024/03/06 09:58:31;;;;;;;28.90;19.10;;;;;;;4.30;74.05;101165.44;107901;1254;73748;-66
2024/03/06 10:01:00;;;;;;;27.00;18.80;;;;;;;4.29;74.44;101165.86;108088;1254;73026;-66
2024/03/06 10:03:28;;;;;;;26.90;18.70;;;;;;;4.30;74.63;101168.90;108205;1254;63436;-68
2024/03/06 10:05:56;;;;;;;28.00;18.70;;;;;;;4.30;74.89;101167.23;107852;1254;61132;-66
2024/03/06 10:08:26;;;;;;;32.70;20.70;;;;;;;4.28;74.97;101172.27;107909;1255;75603;-66
2024/03/06 10:10:54;;;;;;;29.60;19.50;;;;;;;4.21;74.51;101176.04;107861;1254;75592;-68
2024/03/06 10:13:25;;;;;;;33.20;20.40;;;;;;;4.14;75.18;101174.73;108352;1254;73074;-67
2024/03/06 10:16:00;;;;;;;32.60;21.80;;;;;;;4.13;75.63;101175.17;107896;1256;61455;-66
2024/03/06 10:18:29;;;;;;;32.60;20.40;;;;;;;4.09;75.90;101175.84;108902;1254;59541;-68
2024/03/06 10:20:57;;;;;;;26.90;17.90;;;;;;;4.06;75.73;101171.92;108122;1254;75116;-68
2024/03/06 10:23:25;;;;;;;26.50;17.50;;;;;;;4.02;75.75;101173.55;108397;1254;75008;-65
2024/03/06 10:25:53;;;;;;;34.30;20.90;;;;;;;4.01;75.73;101180.38;107856;1257;74855;-66
2024/03/06 10:28:23;;;;;;;33.50;20.30;;;;;;;3.95;75.81;101176.98;107833;1254;61603;-66
2024/03/06 10:30:51;;;;;;;36.30;21.80;;;;;;;3.93;76.28;101171.60;107913;1254;61621;-68
2024/03/06 10:33:19;;;;;;;35.10;21.10;;;;;;;3.92;76.56;101173.05;107925;1257;74825;-65
2024/03/06 10:35:48;;;;;;;32.30;20.10;;;;;;;3.90;77.01;101179.44;107995;1254;72598;-65
2024/03/06 10:38:17;;;;;;;32.40;19.50;;;;;;;3.91;77.35;101178.30;107939;1254;75015;-66
2024/03/06 10:40:45;;;;;;;34.50;21.90;;;;;;;3.93;77.51;101179.58;107867;1257;61499;-67
2024/03/06 10:43:13;;;;;;;44.80;25.90;;;;;;;3.99;77.72;101184.52;107963;1256;61879;-66
2024/03/06 10:45:57;;;;;;;33.40;21.20;;;;;;;3.99;77.73;101184.11;107875;1257;77186;-66
2024/03/06 10:48:25;;;;;;;40.20;23.00;;;;;;;3.95;77.04;101184.34;107883;1257;74097;-65
2024/03/06 10:50:54;;;;;;;32.40;20.50;;;;;;;3.89;77.08;101185.73;107833;1259;73692;-65
2024/03/06 10:53:23;;;;;;;33.80;20.70;;;;;;;3.86;77.15;101187.42;107733;1257;61221;-67
2024/03/06 10:55:53;;;;;;;33.80;20.80;;;;;;;3.82;77.67;101194.48;107691;1254;60505;-65
2024/03/06 10:58:21;;;;;;;35.10;21.50;;;;;;;3.77;77.17;101192.71;107965;1254;76805;-66
2024/03/06 11:00:48;;;;;;;46.20;26.80;;;;;;;3.74;77.18;101192.81;107712;1262;73373;-67
2024/03/06 11:03:16;;;;;;;43.50;26.30;;;;;;;3.74;77.15;101192.04;107823;1254;74951;-65
2024/03/06 11:05:47;;;;;;;49.30;28.40;;;;;;;3.74;77.14;101190.50;107978;1254;61119;-68
2024/03/06 11:08:16;;;;;;;36.50;22.40;;;;;;;3.71;77.10;101191.42;107890;1256;61217;-67
2024/03/06 11:10:45;;;;;;;46.70;27.60;;;;;;;3.66;76.92;101193.08;107888;1254;76765;-66
2024/03/06 11:13:19;;;;;;;38.20;22.60;;;;;;;3.62;77.30;101198.08;107933;1253;73675;-67
2024/03/06 11:15:48;;;;;;;44.50;26.30;;;;;;;3.61;77.16;101194.79;108021;1256;74890;-69
2024/03/06 11:18:31;;;;;;;37.70;22.10;;;;;;;3.57;76.83;101199.00;107941;1254;61176;-66
2024/03/06 11:21:04;;;;;;;37.00;22.50;;;;;;;3.54;76.15;101202.39;107959;1258;62353;-66